^^
Meteo Knjazevac Station Historical Data
Daily Summary for September 28, 2022 Units:  English    Metric   Both
Daily Weekly Monthly Yearly Custom
  High: Low: Average:
Temperature: 55.2 °F 52 °F 53.8 °F
Dew Point: 54.9 °F 51.6 °F 53 °F
Humidity: 99% 95% 97%
Wind Speed: 6.8mph 1.1mph 3.7mph
Wind Gust: 8mph - -
Wind- - ENE
Pressure: 29.78 in 29.77 in -
Precipitation: 0.00 in    
Historical Graphs
 
 
Tabular Data for September 28, 2022
Time Temperature Dew Point Pressure Wind Wind Speed Wind Gust Humidity Rainfall Rate (Hourly) solar Conditions
00:04 54.4 °F 54.1 °F 29.77 in NNE 4.9 mph 5.4 mph 99% 0.00 in 0 W/m2
00:09 54.9 °F 54.6 °F 29.77 in NE 4.6 mph 6 mph 99% 0.00 in 0 W/m2
00:14 55.1 °F 54.9 °F 29.77 in NE 3.4 mph 5 mph 99% 0.00 in 0 W/m2
00:19 55.2 °F 54.9 °F 29.77 in ENE 3 mph 4 mph 99% 0.00 in 0 W/m2
00:24 55.1 °F 54.8 °F 29.77 in East 1.5 mph 3 mph 99% 0.00 in 0 W/m2
00:29 55 °F 54.7 °F 29.77 in NNE 1.1 mph 2 mph 99% 0.00 in 0 W/m2
00:34 54.9 °F 54.6 °F 29.77 in NNE 2.5 mph 2.5 mph 99% 0.00 in 0 W/m2
00:39 54.9 °F 54.6 °F 29.77 in East 2.5 mph 4 mph 98.9% 0.00 in 0 W/m2
00:44 54.9 °F 54.5 °F 29.77 in East 3.7 mph 3.1 mph 98.7% 0.00 in 0 W/m2
00:49 54.8 °F 54.2 °F 29.77 in East 6.1 mph 5 mph 98% 0.00 in 0 W/m2
00:54 55 °F 54.5 °F 29.77 in East 4.1 mph 7 mph 98% 0.00 in 0 W/m2
00:59 55 °F 54.5 °F 29.77 in ENE 1.9 mph 5 mph 98% 0.00 in 0 W/m2
01:04 54.8 °F 54.3 °F 29.77 in NE 2 mph 3 mph 98% 0.00 in 0 W/m2
01:09 54.7 °F 54.1 °F 29.77 in NE 4 mph 3.4 mph 98% 0.00 in 0 W/m2
01:14 54.5 °F 53.9 °F 29.77 in NE 4.3 mph 6 mph 98% 0.00 in 0 W/m2
01:19 54.5 °F 53.9 °F 29.77 in NE 5.5 mph 5 mph 98% 0.00 in 0 W/m2
01:24 54.7 °F 53.9 °F 29.77 in NE 5.3 mph 7 mph 97.3% 0.00 in 0 W/m2
01:29 54.7 °F 53.6 °F 29.77 in NE 4.2 mph 7 mph 96.1% 0.00 in 0 W/m2
01:34 54.7 °F 53.8 °F 29.77 in NE 3.7 mph 5 mph 96.9% 0.00 in 0 W/m2
01:39 54.5 °F 53.6 °F 29.77 in NE 5.4 mph 5 mph 96.9% 0.00 in 0 W/m2
01:44 54.5 °F 53.4 °F 29.77 in NE 5 mph 7 mph 96% 0.00 in 0 W/m2
01:49 54.3 °F 53.2 °F 29.78 in NE 6 mph 6 mph 96% 0.00 in 0 W/m2
01:54 54.3 °F 53.2 °F 29.78 in ENE 5.9 mph 7 mph 96% 0.00 in 0 W/m2
01:59 54.3 °F 53.3 °F 29.78 in East 6.3 mph 7 mph 96% 0.00 in 0 W/m2
02:04 54.5 °F 53.4 °F 29.78 in East 6 mph 7 mph 96% 0.00 in 0 W/m2
02:09 54.6 °F 53.4 °F 29.78 in East 6.8 mph 7 mph 95.5% 0.00 in 0 W/m2
02:14 54.7 °F 53.3 °F 29.78 in East 5.7 mph 8 mph 95% 0.00 in 0 W/m2
02:19 54.6 °F 53.2 °F 29.78 in East 4.8 mph 7 mph 95% 0.00 in 0 W/m2
02:24 54.5 °F 53.1 °F 29.78 in ENE 4.4 mph 5 mph 95% 0.00 in 0 W/m2
02:29 54.5 °F 53.1 °F 29.78 in NE 4.4 mph 5 mph 95% 0.00 in 0 W/m2
02:34 54.3 °F 52.9 °F 29.78 in NE 3.9 mph 6 mph 95% 0.00 in 0 W/m2
02:39 54.3 °F 52.9 °F 29.78 in ENE 3.7 mph 5 mph 95% 0.00 in 0 W/m2
02:44 54.3 °F 52.9 °F 29.78 in East 2.9 mph 5 mph 95% 0.00 in 0 W/m2
02:49 54.1 °F 52.7 °F 29.78 in East 2.8 mph 3 mph 95% 0.00 in 0 W/m2
02:54 54.1 °F 52.7 °F 29.78 in East 3.4 mph 5 mph 95% 0.00 in 0 W/m2
02:59 53.9 °F 52.5 °F 29.78 in East 1.5 mph 5 mph 95.2% 0.00 in 0 W/m2
03:04 53.6 °F 52.4 °F 29.78 in NE 2.6 mph 2 mph 95.7% 0.00 in 0 W/m2
03:09 53.4 °F 52.3 °F 29.78 in NE 3 mph 3 mph 96% 0.00 in 0 W/m2
03:14 53.4 °F 52.3 °F 29.78 in ENE 2.2 mph 4 mph 96% 0.00 in 0 W/m2
03:19 53.3 °F 52.2 °F 29.78 in NNE 2.4 mph 3 mph 96% 0.00 in 0 W/m2
03:24 53.1 °F 52 °F 29.78 in NNW 3.6 mph 3 mph 96% 0.00 in 0 W/m2
03:29 53 °F 51.9 °F 29.78 in ENE 3.9 mph 5 mph 96% 0.00 in 0 W/m2
03:34 53.1 °F 52 °F 29.78 in ESE 5.1 mph 6 mph 96% 0.00 in 0 W/m2
03:39 53.2 °F 52.1 °F 29.78 in SE 3.6 mph 6 mph 96% 0.00 in 0 W/m2
03:44 53.1 °F 52 °F 29.78 in ESE 2.2 mph 6 mph 96% 0.00 in 0 W/m2
03:49 52.8 °F 51.7 °F 29.78 in ENE 2.2 mph 3 mph 96% 0.00 in 0 W/m2
03:54 52.5 °F 51.7 °F 29.78 in East 2.1 mph 2 mph 97% 0.00 in 0 W/m2
03:59 52.4 °F 51.9 °F 29.78 in NE 2 mph 2 mph 98% 0.00 in 0 W/m2
04:04 52.2 °F 51.6 °F 29.78 in NNE 2.1 mph 2 mph 98% 0.00 in 0 W/m2
04:09 52.1 °F 51.7 °F 29.78 in NNE 2.1 mph 2 mph 98.5% 0.00 in 0 W/m2
04:14 52 °F 51.7 °F 29.78 in NNE 3.4 mph 5 mph 99% 0.00 in 0 W/m2
04:19 52 °F 51.7 °F 29.78 in NE 2 mph 5 mph 99% 0.00 in 0 W/m2
04:24 52 °F 51.7 °F 29.78 in ENE 3.2 mph 3 mph 99% 0.00 in 0 W/m2
04:29 52.2 °F 51.9 °F 29.78 in SE 4.5 mph 5 mph 99% 0.00 in 0 W/m2
04:34 52.3 °F 52.1 °F 29.78 in SE 4.8 mph 6 mph 98.9% 0.00 in 0 W/m2
04:39 52.3 °F 51.8 °F 29.78 in SSE 3.6 mph 6 mph 98% 0.00 in 0 W/m2
04:44 52.2 °F 51.7 °F 29.78 in SSE 5.2 mph 7 mph 98.3% 0.00 in 0 W/m2
04:49 52.3 °F 52.1 °F 29.78 in SSE 3.6 mph 6 mph 98.8% 0.00 in 0 W/m2
04:54 52.6 °F 52.1 °F 29.78 in SE 3.6 mph 4 mph 98% 0.00 in 0 W/m2
04:59 52.8 °F 52.2 °F 29.78 in ESE 3.5 mph 5 mph 98% 0.00 in 0 W/m2
Knjazevac, Serbia
Compliments of Weather Underground - 2 mb